createdAt,value
2023-04-19T00:01:12.335Z,100.00
2023-04-19T00:03:38.813Z,100.00
2023-04-19T00:06:07.640Z,100.00
2023-04-19T00:08:33.791Z,100.00
2023-04-19T00:10:59.918Z,100.00
2023-04-19T00:13:26.001Z,100.00
2023-04-19T00:15:52.082Z,100.00
2023-04-19T00:18:18.146Z,100.00
2023-04-19T00:20:44.250Z,100.00
2023-04-19T00:23:10.382Z,100.00
2023-04-19T00:25:36.538Z,100.00
2023-04-19T00:28:03.351Z,100.00
2023-04-19T00:30:29.474Z,100.00
2023-04-19T00:32:55.701Z,100.00
2023-04-19T00:35:21.874Z,100.00
2023-04-19T00:37:47.962Z,100.00
2023-04-19T00:40:14.198Z,100.00
2023-04-19T00:42:40.309Z,100.00
2023-04-19T00:45:06.996Z,100.00
2023-04-19T00:47:34.409Z,100.00
2023-04-19T00:50:00.674Z,100.00
2023-04-19T00:52:26.923Z,100.00
2023-04-19T00:54:53.214Z,100.00
2023-04-19T00:57:19.620Z,100.00
2023-04-19T00:59:45.780Z,100.00
2023-04-19T01:02:12.149Z,100.00
2023-04-19T01:04:38.500Z,100.00
2023-04-19T01:07:05.245Z,100.00
2023-04-19T01:09:31.354Z,100.00
2023-04-19T01:11:58.073Z,100.00
2023-04-19T01:14:25.004Z,100.00
2023-04-19T01:16:51.740Z,100.00
2023-04-19T01:19:18.064Z,100.00
2023-04-19T01:21:45.645Z,100.00
2023-04-19T01:24:11.753Z,100.00
2023-04-19T01:26:37.847Z,100.00
2023-04-19T01:29:03.935Z,100.00
2023-04-19T01:31:30.060Z,100.00
2023-04-19T01:33:56.314Z,100.00
2023-04-19T01:36:22.383Z,100.00
2023-04-19T01:38:49.165Z,100.00
2023-04-19T01:41:15.332Z,100.00
2023-04-19T01:43:41.403Z,100.00
2023-04-19T01:46:07.495Z,100.00
2023-04-19T01:48:33.584Z,100.00
2023-04-19T01:50:59.845Z,100.00
2023-04-19T01:53:25.911Z,100.00
2023-04-19T01:55:52.041Z,100.00
2023-04-19T01:58:18.122Z,100.00
2023-04-19T02:00:44.213Z,100.00
2023-04-19T02:03:10.440Z,100.00
2023-04-19T02:05:38.721Z,100.00
2023-04-19T02:08:05.059Z,100.00
2023-04-19T02:10:31.180Z,100.00
2023-04-19T02:12:57.309Z,100.00
2023-04-19T02:15:23.360Z,100.00
2023-04-19T02:17:49.920Z,100.00
2023-04-19T02:20:16.125Z,100.00
2023-04-19T02:22:43.165Z,100.00
2023-04-19T02:25:09.752Z,100.00
2023-04-19T02:27:35.859Z,100.00
2023-04-19T02:30:02.125Z,100.00
2023-04-19T02:32:28.251Z,100.00
2023-04-19T02:34:54.422Z,100.00
2023-04-19T02:37:20.532Z,100.00
2023-04-19T02:39:46.632Z,100.00
2023-04-19T02:42:12.705Z,100.00
2023-04-19T02:44:38.872Z,100.00
2023-04-19T02:47:05.196Z,100.00
2023-04-19T02:49:36.272Z,100.00
2023-04-19T02:52:02.438Z,100.00
2023-04-19T02:54:28.510Z,100.00
2023-04-19T02:56:54.597Z,100.00
2023-04-19T02:59:20.703Z,100.00
2023-04-19T03:01:46.926Z,100.00
2023-04-19T03:04:13.276Z,100.00
2023-04-19T03:06:41.225Z,100.00
2023-04-19T03:09:07.358Z,100.00
2023-04-19T03:11:33.548Z,100.00
2023-04-19T03:14:00.031Z,100.00
2023-04-19T03:16:26.434Z,100.00
2023-04-19T03:18:52.572Z,100.00
2023-04-19T03:21:18.679Z,100.00
2023-04-19T03:23:45.102Z,100.00
2023-04-19T03:26:11.187Z,100.00
2023-04-19T03:28:37.418Z,100.00
2023-04-19T03:31:03.634Z,100.00
2023-04-19T03:33:29.821Z,100.00
2023-04-19T03:35:56.657Z,100.00
2023-04-19T03:38:22.860Z,100.00
2023-04-19T03:40:49.364Z,100.00
2023-04-19T03:43:15.504Z,100.00
2023-04-19T03:45:41.579Z,100.00
2023-04-19T03:48:07.669Z,100.00
2023-04-19T03:50:33.812Z,100.00
2023-04-19T03:52:59.899Z,100.00
2023-04-19T03:55:26.014Z,100.00
2023-04-19T03:57:52.139Z,100.00
2023-04-19T04:00:18.275Z,100.00
2023-04-19T04:02:44.571Z,100.00
2023-04-19T04:05:11.077Z,100.00
2023-04-19T04:07:37.317Z,100.00
2023-04-19T04:10:03.873Z,100.00
2023-04-19T04:12:30.081Z,100.00
2023-04-19T04:14:56.156Z,100.00
2023-04-19T04:17:23.600Z,100.00
2023-04-19T04:19:49.827Z,100.00
2023-04-19T04:22:16.327Z,100.00
2023-04-19T04:24:43.344Z,100.00
2023-04-19T04:27:10.219Z,100.00
2023-04-19T04:29:36.762Z,100.00
2023-04-19T04:32:09.809Z,100.00
2023-04-19T04:34:36.612Z,100.00
2023-04-19T04:37:03.454Z,100.00
2023-04-19T04:39:29.822Z,100.00
2023-04-19T04:41:57.116Z,100.00
2023-04-19T04:44:23.698Z,100.00
2023-04-19T04:46:49.945Z,100.00
2023-04-19T04:49:16.094Z,100.00
2023-04-19T04:51:42.259Z,100.00
2023-04-19T04:54:08.333Z,100.00
2023-04-19T04:56:35.152Z,100.00
2023-04-19T04:59:01.272Z,100.00
2023-04-19T05:01:27.539Z,100.00
2023-04-19T05:03:53.708Z,100.00
2023-04-19T05:06:19.822Z,100.00
2023-04-19T05:08:45.940Z,100.00
2023-04-19T05:11:12.070Z,100.00
2023-04-19T05:13:38.139Z,100.00
2023-04-19T05:16:04.603Z,100.00
2023-04-19T05:18:30.810Z,100.00
2023-04-19T05:20:57.444Z,100.00
2023-04-19T05:23:23.574Z,100.00
2023-04-19T05:25:49.820Z,100.00
2023-04-19T05:28:15.924Z,100.00
2023-04-19T05:30:42.030Z,100.00
2023-04-19T05:33:08.250Z,100.00
2023-04-19T05:35:34.393Z,100.00
2023-04-19T05:38:00.676Z,100.00
2023-04-19T05:40:27.681Z,100.00
2023-04-19T05:42:53.798Z,100.00
2023-04-19T05:45:21.307Z,100.00
2023-04-19T05:47:47.388Z,94.83
2023-04-19T05:50:17.198Z,98.61
2023-04-19T05:52:43.410Z,95.14
2023-04-19T05:55:09.499Z,92.92
2023-04-19T05:57:35.652Z,88.66
2023-04-19T06:00:02.493Z,94.30
2023-04-19T06:02:29.024Z,95.55
2023-04-19T06:04:57.392Z,94.36
2023-04-19T06:07:32.005Z,94.65
2023-04-19T06:10:00.838Z,94.22
2023-04-19T06:12:27.085Z,93.32
2023-04-19T06:14:53.609Z,95.21
2023-04-19T06:17:24.508Z,95.19
2023-04-19T06:19:51.383Z,92.09
2023-04-19T06:22:17.530Z,94.05
2023-04-19T06:24:45.172Z,94.41
2023-04-19T06:27:11.672Z,96.95
2023-04-19T06:29:37.732Z,94.13
2023-04-19T06:32:04.212Z,94.19
2023-04-19T06:34:30.523Z,96.55
2023-04-19T06:36:56.717Z,96.09
2023-04-19T06:39:22.845Z,95.61
2023-04-19T06:41:48.994Z,95.66
2023-04-19T06:44:15.557Z,93.58
2023-04-19T06:46:41.897Z,84.90
2023-04-19T06:49:07.999Z,85.76
2023-04-19T06:51:34.287Z,89.44
2023-04-19T06:54:00.383Z,89.00
2023-04-19T06:56:46.357Z,89.67
2023-04-19T06:59:13.815Z,86.35
2023-04-19T07:01:40.632Z,79.41
2023-04-19T07:04:07.718Z,83.49
2023-04-19T07:06:38.024Z,85.65
2023-04-19T07:09:05.492Z,80.67
2023-04-19T07:11:32.003Z,73.33
2023-04-19T07:14:00.142Z,73.81
2023-04-19T07:16:27.176Z,68.92
2023-04-19T07:18:53.405Z,74.63
2023-04-19T07:21:19.534Z,73.99
2023-04-19T07:23:45.723Z,72.72
2023-04-19T07:26:11.852Z,74.06
2023-04-19T07:28:39.113Z,70.03
2023-04-19T07:31:05.288Z,69.65
2023-04-19T07:33:31.595Z,71.70
2023-04-19T07:35:57.717Z,76.58
2023-04-19T07:38:24.213Z,72.08
2023-04-19T07:40:50.828Z,69.91
2023-04-19T07:43:17.016Z,70.43
2023-04-19T07:45:43.158Z,68.41
2023-04-19T07:48:09.576Z,65.03
2023-04-19T07:50:36.598Z,68.89
2023-04-19T07:53:02.767Z,69.25
2023-04-19T07:55:28.939Z,65.33
2023-04-19T07:57:55.159Z,63.35
2023-04-19T08:00:21.412Z,65.90
2023-04-19T08:02:48.456Z,63.41
2023-04-19T08:05:18.604Z,60.28
2023-04-19T08:07:45.385Z,60.80
2023-04-19T08:10:11.916Z,62.38
2023-04-19T08:12:42.982Z,60.64
2023-04-19T08:17:46.424Z,57.61
2023-04-19T08:20:12.584Z,57.11
2023-04-19T08:22:39.096Z,54.84
2023-04-19T08:25:06.610Z,55.00
2023-04-19T08:27:32.798Z,54.35
2023-04-19T08:29:58.926Z,51.56
2023-04-19T08:32:25.157Z,51.16
2023-04-19T08:34:51.237Z,54.62
2023-04-19T08:37:17.370Z,52.47
2023-04-19T08:39:43.460Z,54.02
2023-04-19T08:42:18.353Z,53.73
2023-04-19T08:45:13.714Z,52.69
2023-04-19T08:47:59.013Z,52.77
2023-04-19T08:50:40.418Z,52.53
2023-04-19T08:53:24.992Z,51.84
2023-04-19T08:56:10.638Z,50.36
2023-04-19T08:58:56.996Z,50.65
2023-04-19T09:01:34.731Z,50.64
2023-04-19T09:04:31.817Z,49.89
2023-04-19T09:06:58.117Z,50.75
2023-04-19T09:12:15.955Z,47.70
2023-04-19T09:17:21.921Z,50.16
2023-04-19T09:19:53.023Z,48.63
2023-04-19T09:22:24.755Z,47.59
2023-04-19T09:27:33.917Z,48.11
2023-04-19T09:30:06.235Z,45.89
2023-04-19T09:32:47.697Z,46.31
2023-04-19T09:35:18.497Z,45.60
2023-04-19T09:38:05.826Z,45.21
2023-04-19T09:40:39.037Z,44.85
2023-04-19T09:43:40.479Z,46.75
2023-04-19T09:45:59.019Z,45.52
2023-04-19T09:48:28.076Z,46.23
2023-04-19T09:51:04.957Z,45.04
2023-04-19T09:53:33.791Z,43.97
2023-04-19T09:56:02.763Z,45.08
2023-04-19T09:58:51.354Z,44.68
2023-04-19T10:01:21.784Z,44.88
2023-04-19T10:03:49.976Z,44.51
2023-04-19T10:08:53.072Z,42.83
2023-04-19T10:11:23.116Z,42.78
2023-04-19T10:13:59.758Z,42.10
2023-04-19T10:16:26.482Z,42.55
2023-04-19T10:18:53.356Z,41.45
2023-04-19T10:21:20.260Z,39.87
2023-04-19T10:23:56.007Z,40.71
2023-04-19T10:26:24.767Z,39.76
2023-04-19T10:28:56.498Z,40.49
2023-04-19T10:31:26.129Z,40.94
2023-04-19T10:33:54.921Z,40.96
2023-04-19T10:36:26.778Z,38.74
2023-04-19T10:38:55.185Z,39.22
2023-04-19T10:41:58.628Z,39.13
2023-04-19T10:44:24.865Z,38.29
2023-04-19T10:46:59.267Z,38.75
2023-04-19T10:49:30.542Z,37.74
2023-04-19T10:51:59.330Z,37.96
2023-04-19T10:54:43.748Z,38.07
2023-04-19T10:57:15.378Z,40.24
2023-04-19T10:59:43.696Z,40.80
2023-04-19T11:02:21.815Z,39.35
2023-04-19T11:04:52.933Z,39.43
2023-04-19T11:07:24.006Z,40.01
2023-04-19T11:09:51.768Z,41.15
2023-04-19T11:12:22.217Z,40.00
2023-04-19T11:14:56.645Z,40.19
2023-04-19T11:17:30.773Z,39.90
2023-04-19T11:20:09.158Z,41.06
2023-04-19T11:22:42.187Z,40.17
2023-04-19T11:25:18.495Z,39.70
2023-04-19T11:27:51.439Z,39.90
2023-04-19T11:30:28.692Z,38.35
2023-04-19T11:32:59.449Z,39.71
2023-04-19T11:35:30.757Z,40.81
2023-04-19T11:38:01.218Z,40.69
2023-04-19T11:40:31.793Z,39.65
2023-04-19T11:43:06.072Z,39.25
2023-04-19T11:45:41.220Z,38.09
2023-04-19T11:48:15.716Z,38.25
2023-04-19T11:50:49.786Z,38.46
2023-04-19T11:53:22.009Z,39.03
2023-04-19T11:56:11.555Z,38.22
2023-04-19T11:58:49.070Z,38.80
2023-04-19T12:01:21.252Z,38.59
2023-04-19T12:04:04.409Z,38.24
2023-04-19T12:06:32.925Z,35.93
2023-04-19T12:09:07.440Z,35.88
2023-04-19T12:11:45.749Z,36.43
2023-04-19T12:14:13.607Z,35.39
2023-04-19T12:16:41.579Z,35.45
2023-04-19T12:19:17.042Z,34.27
2023-04-19T12:21:45.975Z,35.25
2023-04-19T12:24:16.031Z,36.54
2023-04-19T12:26:56.516Z,36.72
2023-04-19T12:29:22.752Z,36.16
2023-04-19T12:31:48.849Z,36.60
2023-04-19T12:34:15.996Z,36.20
2023-04-19T12:36:47.841Z,35.91
2023-04-19T12:39:18.748Z,36.17
2023-04-19T12:41:52.077Z,32.08
2023-04-19T12:44:19.631Z,32.72
2023-04-19T12:46:50.515Z,31.03
2023-04-19T12:49:20.422Z,31.63
2023-04-19T12:51:50.747Z,29.99
2023-04-19T12:54:21.058Z,29.86
2023-04-19T12:56:51.051Z,30.97
2023-04-19T12:59:21.372Z,30.55
2023-04-19T13:01:51.718Z,31.61
2023-04-19T13:04:25.494Z,31.91
2023-04-19T13:06:55.648Z,31.74
2023-04-19T13:09:26.974Z,30.95
2023-04-19T13:11:55.743Z,31.58
2023-04-19T13:14:26.787Z,31.72
2023-04-19T13:16:55.291Z,31.33
2023-04-19T13:19:26.147Z,33.79
2023-04-19T13:22:00.882Z,33.92
2023-04-19T13:24:30.977Z,34.13
2023-04-19T13:27:01.377Z,33.73
2023-04-19T13:29:33.660Z,32.81
2023-04-19T13:32:11.456Z,33.70
2023-04-19T13:34:39.470Z,33.40
2023-04-19T13:37:06.799Z,33.57
2023-04-19T13:39:37.809Z,34.01
2023-04-19T13:42:08.354Z,34.02
2023-04-19T13:44:37.744Z,33.57
2023-04-19T13:47:11.166Z,33.46
2023-04-19T13:49:41.651Z,33.93
2023-04-19T13:52:12.278Z,34.40
2023-04-19T13:54:42.358Z,35.30
2023-04-19T13:57:12.521Z,35.31
2023-04-19T13:59:42.252Z,34.64
2023-04-19T14:02:12.478Z,34.89
2023-04-19T14:04:43.271Z,35.05
2023-04-19T14:07:13.430Z,35.79
2023-04-19T14:09:43.948Z,35.63
2023-04-19T14:12:13.674Z,35.97
2023-04-19T14:14:47.071Z,34.75
2023-04-19T14:17:17.080Z,35.25
2023-04-19T14:19:47.248Z,35.59
2023-04-19T14:22:17.536Z,34.54
2023-04-19T14:24:47.344Z,33.08
2023-04-19T14:27:18.485Z,32.55
2023-04-19T14:29:47.300Z,32.29
2023-04-19T14:32:26.469Z,30.98
2023-04-19T14:34:55.104Z,30.92
2023-04-19T14:37:23.539Z,31.35
2023-04-19T14:39:53.254Z,30.17
2023-04-19T14:42:23.896Z,30.10
2023-04-19T14:44:54.866Z,30.29
2023-04-19T14:47:26.188Z,30.68
2023-04-19T14:49:58.850Z,31.10
2023-04-19T14:52:29.632Z,30.76
2023-04-19T14:54:59.431Z,31.64
2023-04-19T14:57:29.735Z,31.51
2023-04-19T15:00:01.596Z,31.63
2023-04-19T15:02:30.576Z,31.08
2023-04-19T15:05:00.275Z,32.32
2023-04-19T15:07:34.520Z,32.59
2023-04-19T15:10:05.401Z,32.76
2023-04-19T15:12:35.072Z,33.81
2023-04-19T15:15:08.259Z,32.90
2023-04-19T15:17:38.471Z,33.10
2023-04-19T15:20:08.691Z,33.46
2023-04-19T15:22:38.310Z,34.32
2023-04-19T15:25:10.857Z,33.71
2023-04-19T15:27:41.562Z,33.42
2023-04-19T15:30:11.642Z,33.60
2023-04-19T15:32:44.885Z,33.88
2023-04-19T15:35:14.727Z,33.64
2023-04-19T15:37:46.608Z,34.55
2023-04-19T15:40:16.365Z,34.49
2023-04-19T15:42:45.734Z,34.67
2023-04-19T15:45:16.366Z,34.60
2023-04-19T15:47:46.294Z,35.48
2023-04-19T15:50:20.141Z,36.17
2023-04-19T15:52:50.849Z,36.08
2023-04-19T15:55:21.109Z,36.89
2023-04-19T15:57:51.158Z,36.80
2023-04-19T16:00:21.659Z,37.44
2023-04-19T16:02:52.605Z,37.91
2023-04-19T16:05:22.323Z,37.57
2023-04-19T16:08:05.655Z,37.31
2023-04-19T16:10:31.995Z,37.97
2023-04-19T16:12:58.134Z,38.32
2023-04-19T16:15:27.494Z,38.36
2023-04-19T16:17:57.154Z,39.02
2023-04-19T16:20:27.126Z,38.59
2023-04-19T16:22:58.015Z,38.92
2023-04-19T16:25:33.653Z,38.71
2023-04-19T16:28:03.669Z,38.47
2023-04-19T16:30:33.641Z,39.04
2023-04-19T16:33:05.139Z,38.25
2023-04-19T16:35:34.261Z,38.61
2023-04-19T16:38:06.219Z,39.19
2023-04-19T16:40:34.630Z,38.74
2023-04-19T16:43:09.277Z,39.25
2023-04-19T16:45:42.033Z,38.70
2023-04-19T16:48:10.596Z,39.90
2023-04-19T16:50:40.568Z,40.23
2023-04-19T16:53:11.557Z,40.37
2023-04-19T16:55:41.808Z,40.87
2023-04-19T16:58:13.595Z,40.20
2023-04-19T17:00:48.934Z,40.30
2023-04-19T17:03:19.618Z,40.54
2023-04-19T17:05:49.228Z,40.94
2023-04-19T17:08:21.635Z,41.45
2023-04-19T17:10:52.299Z,41.67
2023-04-19T17:13:22.591Z,41.35
2023-04-19T17:15:52.733Z,41.40
2023-04-19T17:18:24.738Z,41.44
2023-04-19T17:20:54.664Z,41.24
2023-04-19T17:23:24.808Z,41.17
2023-04-19T17:25:54.699Z,41.31
2023-04-19T17:28:25.128Z,42.01
2023-04-19T17:30:55.287Z,41.72
2023-04-19T17:33:25.468Z,42.36
2023-04-19T17:35:57.875Z,41.91
2023-04-19T17:38:28.114Z,43.01
2023-04-19T17:40:58.097Z,42.85
2023-04-19T17:43:32.082Z,43.06
2023-04-19T17:46:03.230Z,42.79
2023-04-19T17:48:33.512Z,42.90
2023-04-19T17:51:03.521Z,43.49
2023-04-19T17:53:35.635Z,43.83
2023-04-19T17:56:05.783Z,43.55
2023-04-19T17:58:35.845Z,43.51
2023-04-19T18:01:06.001Z,43.00
2023-04-19T18:03:36.502Z,43.80
2023-04-19T18:06:08.106Z,43.05
2023-04-19T18:08:35.916Z,43.21
2023-04-19T18:11:12.557Z,43.50
2023-04-19T18:13:39.153Z,43.12
2023-04-19T18:16:10.532Z,43.67
2023-04-19T18:18:41.236Z,43.66
2023-04-19T18:21:12.036Z,43.69
2023-04-19T18:23:42.417Z,44.35
2023-04-19T18:26:12.219Z,44.25
2023-04-19T18:28:46.057Z,44.68
2023-04-19T18:31:16.773Z,44.92
2023-04-19T18:33:46.896Z,44.53
2023-04-19T18:36:17.158Z,44.73
2023-04-19T18:38:47.303Z,45.84
2023-04-19T18:41:33.192Z,44.83
2023-04-19T18:44:34.939Z,44.46
2023-04-19T18:46:53.638Z,45.00
2023-04-19T18:49:20.720Z,44.63
2023-04-19T18:51:52.658Z,44.88
2023-04-19T18:54:18.927Z,44.71
2023-04-19T18:59:15.263Z,45.05
2023-04-19T19:01:48.751Z,44.15
2023-04-19T19:04:43.040Z,44.14
2023-04-19T19:07:34.107Z,43.35
2023-04-19T19:10:18.143Z,43.66
2023-04-19T19:12:51.820Z,42.89
2023-04-19T19:15:23.002Z,43.45
2023-04-19T19:17:53.931Z,43.39
2023-04-19T19:20:29.108Z,43.36
2023-04-19T19:22:59.805Z,42.88
2023-04-19T19:25:31.397Z,42.79
2023-04-19T19:28:10.113Z,42.85
2023-04-19T19:30:44.121Z,42.56
2023-04-19T19:33:16.403Z,42.65
2023-04-19T19:35:51.578Z,43.05
2023-04-19T19:38:23.794Z,42.92
2023-04-19T19:41:30.886Z,43.17
2023-04-19T19:43:45.419Z,43.77
2023-04-19T19:46:16.575Z,44.03
2023-04-19T19:53:53.343Z,44.04
2023-04-19T19:56:24.571Z,43.35
2023-04-19T19:58:58.573Z,43.79
2023-04-19T20:01:28.595Z,43.63
2023-04-19T20:03:59.411Z,43.06
2023-04-19T20:09:00.452Z,43.64
2023-04-19T20:11:29.981Z,42.67
2023-04-19T20:14:00.080Z,43.35
2023-04-19T20:16:34.677Z,43.84
2023-04-19T20:19:08.894Z,43.47
2023-04-19T20:21:37.047Z,43.70
2023-04-19T20:24:05.196Z,44.21
2023-04-19T20:26:35.216Z,43.78
2023-04-19T20:29:06.215Z,44.17
2023-04-19T20:31:36.463Z,43.75
2023-04-19T20:34:10.034Z,44.20
2023-04-19T20:36:40.032Z,44.21
2023-04-19T20:39:12.296Z,44.58
2023-04-19T20:41:40.134Z,43.60
2023-04-19T20:44:10.971Z,44.45
2023-04-19T20:46:40.694Z,45.26
2023-04-19T20:49:10.177Z,44.32
2023-04-19T20:51:45.810Z,43.78
2023-04-19T20:54:14.168Z,45.17
2023-04-19T20:56:43.985Z,44.92
2023-04-19T20:59:13.832Z,45.59
2023-04-19T21:01:43.678Z,44.67
2023-04-19T21:04:14.171Z,44.20
2023-04-19T21:06:44.140Z,44.02
2023-04-19T21:09:18.482Z,45.23
2023-04-19T21:11:48.040Z,45.45
2023-04-19T21:14:17.952Z,45.35
2023-04-19T21:16:48.358Z,44.79
2023-04-19T21:19:18.488Z,45.14
2023-04-19T21:21:48.349Z,45.10
2023-04-19T21:24:19.022Z,46.73
2023-04-19T21:26:53.874Z,46.67
2023-04-19T21:29:24.597Z,46.20
2023-04-19T21:31:54.051Z,48.16
2023-04-19T21:34:24.229Z,47.86
2023-04-19T21:36:54.212Z,47.84
2023-04-19T21:39:24.731Z,48.17
2023-04-19T21:41:54.622Z,48.98
2023-04-19T21:44:28.504Z,48.45
2023-04-19T21:46:58.653Z,49.10
2023-04-19T21:49:28.586Z,50.02
2023-04-19T21:51:58.577Z,50.30
2023-04-19T21:54:33.830Z,53.53
2023-04-19T21:57:00.887Z,60.21
2023-04-19T21:59:30.105Z,65.28
2023-04-19T22:02:03.929Z,69.72
2023-04-19T22:04:35.935Z,74.17
2023-04-19T22:07:04.319Z,79.74
2023-04-19T22:09:34.230Z,78.88
2023-04-19T22:12:05.382Z,86.21
2023-04-19T22:14:34.464Z,86.11
2023-04-19T22:17:04.819Z,90.90
2023-04-19T22:19:38.733Z,88.66
2023-04-19T22:22:07.942Z,93.63
2023-04-19T22:24:50.063Z,100.00
2023-04-19T22:27:28.183Z,100.00
2023-04-19T22:29:54.312Z,100.00
2023-04-19T22:32:20.556Z,100.00
2023-04-19T22:34:46.649Z,100.00
2023-04-19T22:37:16.070Z,100.00
2023-04-19T22:39:43.848Z,100.00
2023-04-19T22:42:13.825Z,100.00
2023-04-19T22:44:44.022Z,100.00
2023-04-19T22:47:14.510Z,100.00
2023-04-19T22:49:44.561Z,100.00
2023-04-19T22:52:14.999Z,100.00
2023-04-19T22:54:49.321Z,100.00
2023-04-19T22:57:19.536Z,100.00
2023-04-19T22:59:49.500Z,100.00
2023-04-19T23:02:19.619Z,100.00
2023-04-19T23:04:49.737Z,100.00
2023-04-19T23:07:21.168Z,100.00
2023-04-19T23:09:50.292Z,100.00
2023-04-19T23:12:24.954Z,100.00
2023-04-19T23:14:54.896Z,100.00
2023-04-19T23:17:25.602Z,100.00
2023-04-19T23:19:54.606Z,100.00
2023-04-19T23:22:24.571Z,100.00
2023-04-19T23:24:54.680Z,100.00
2023-04-19T23:27:24.915Z,100.00
2023-04-19T23:29:59.619Z,100.00
2023-04-19T23:32:30.258Z,100.00
2023-04-19T23:34:59.974Z,100.00
2023-04-19T23:37:29.588Z,100.00
2023-04-19T23:40:00.879Z,100.00
2023-04-19T23:42:30.166Z,100.00
2023-04-19T23:45:00.609Z,100.00
2023-04-19T23:47:34.694Z,100.00
2023-04-19T23:50:05.496Z,100.00
2023-04-19T23:52:34.986Z,100.00
2023-04-19T23:55:06.206Z,100.00
2023-04-19T23:57:35.769Z,100.00
